Time;durP1;ratioP1;P1;durP2;ratioP2;P2;SDS_P1;SDS_P2;PMS_P1;PMS_P2;Temp;Humidity;BMP_temperature;BMP_pressure;BME280_temperature;BME280_humidity;BME280_pressure;Samples;Min_cycle;Max_cycle;Signal;HPM_P1;HPM_P2
2022/08/17 00:00:22;;;;;;;15.57;10.93;;;;;;;;;;5092054;28;20716;-73
2022/08/17 00:03:00;;;;;;;11.83;10.67;;;;;;;;;;5106582;28;20245;-73
2022/08/17 00:05:28;;;;;;;14.87;11.23;;;;;;;;;;5112979;28;20256;-74
2022/08/17 00:07:55;;;;;;;12.17;10.97;;;;;;;;;;5112905;28;20201;-73
2022/08/17 00:10:23;;;;;;;14.37;11.70;;;;;;;;;;5113114;28;20206;-73
2022/08/17 00:12:51;;;;;;;11.73;10.63;;;;;;;;;;5113037;28;20240;-73
2022/08/17 00:15:19;;;;;;;15.20;11.27;;;;;;;;;;5112954;28;20224;-73
2022/08/17 00:17:47;;;;;;;12.30;10.93;;;;;;;;;;5113268;28;20236;-73
2022/08/17 00:20:14;;;;;;;12.47;11.17;;;;;;;;;;5112657;28;20230;-73
2022/08/17 00:22:42;;;;;;;12.80;10.90;;;;;;;;;;5112696;28;20255;-73
2022/08/17 00:25:13;;;;;;;16.23;10.90;;;;;;;;;;5113012;28;20264;-73
2022/08/17 00:27:40;;;;;;;14.70;11.00;;;;;;;;;;5112595;28;20259;-73
2022/08/17 00:30:11;;;;;;;12.80;10.80;;;;;;;;;;5113117;28;20230;-73
2022/08/17 00:32:39;;;;;;;13.47;10.50;;;;;;;;;;5114412;28;20293;-73
2022/08/17 00:35:07;;;;;;;12.87;10.73;;;;;;;;;;5116848;28;20225;-73
2022/08/17 00:37:35;;;;;;;11.90;10.67;;;;;;;;;;5116788;28;20289;-73
2022/08/17 00:40:02;;;;;;;12.60;11.30;;;;;;;;;;5116597;28;20202;-73
2022/08/17 00:42:29;;;;;;;13.03;11.67;;;;;;;;;;5116286;28;20198;-73
2022/08/17 00:44:56;;;;;;;12.67;11.33;;;;;;;;;;5116506;28;20261;-73
2022/08/17 00:47:25;;;;;;;12.93;11.53;;;;;;;;;;5116557;28;20631;-73
2022/08/17 00:49:52;;;;;;;14.67;12.13;;;;;;;;;;5116771;28;20233;-73
2022/08/17 00:52:21;;;;;;;14.57;13.07;;;;;;;;;;5116538;28;20284;-73
2022/08/17 00:54:51;;;;;;;14.00;12.47;;;;;;;;;;5115940;28;20324;-73
2022/08/17 00:57:19;;;;;;;16.17;12.17;;;;;;;;;;5116423;28;20324;-73
2022/08/17 00:59:47;;;;;;;13.10;11.80;;;;;;;;;;5116060;28;20333;-72
2022/08/17 01:02:15;;;;;;;14.30;11.80;;;;;;;;;;5107203;28;20293;-73
2022/08/17 01:04:45;;;;;;;13.13;10.87;;;;;;;;;;5095613;28;20269;-74
2022/08/17 01:07:13;;;;;;;14.33;11.13;;;;;;;;;;5095448;28;20255;-73
2022/08/17 01:09:41;;;;;;;11.93;10.73;;;;;;;;;;5095369;28;20248;-73
2022/08/17 01:12:09;;;;;;;14.07;11.03;;;;;;;;;;5095571;28;20198;-73
2022/08/17 01:14:37;;;;;;;12.10;10.80;;;;;;;;;;5095619;28;20625;-73
2022/08/17 01:17:05;;;;;;;12.50;10.77;;;;;;;;;;5095829;28;20233;-73
2022/08/17 01:19:34;;;;;;;15.50;10.90;;;;;;;;;;5095595;28;20226;-73
2022/08/17 01:22:06;;;;;;;12.67;10.40;;;;;;;;;;5095254;28;20232;-73
2022/08/17 01:24:35;;;;;;;13.73;11.13;;;;;;;;;;5095136;28;20317;-73
2022/08/17 01:27:03;;;;;;;11.50;10.13;;;;;;;;;;5095614;28;20290;-73
2022/08/17 01:29:31;;;;;;;15.33;10.90;;;;;;;;;;5095471;28;20238;-73
2022/08/17 01:32:00;;;;;;;12.30;10.87;;;;;;;;;;5095309;28;20238;-73
2022/08/17 01:34:27;;;;;;;16.40;10.93;;;;;;;;;;5095173;28;20278;-73
2022/08/17 01:36:54;;;;;;;17.90;10.83;;;;;;;;;;5095035;28;20226;-73
2022/08/17 01:39:24;;;;;;;11.80;10.60;;;;;;;;;;5094802;28;20234;-73
2022/08/17 01:41:55;;;;;;;11.27;10.27;;;;;;;;;;5094877;28;20230;-73
2022/08/17 01:44:24;;;;;;;11.80;10.70;;;;;;;;;;5102162;28;20222;-73
2022/08/17 01:46:51;;;;;;;16.53;11.67;;;;;;;;;;5115436;28;20293;-73
2022/08/17 01:49:19;;;;;;;11.90;10.70;;;;;;;;;;5115479;28;20197;-73
2022/08/17 01:51:46;;;;;;;15.20;11.13;;;;;;;;;;5115643;28;20213;-73
2022/08/17 01:54:16;;;;;;;13.00;11.03;;;;;;;;;;5114829;28;20240;-73
2022/08/17 01:56:44;;;;;;;14.13;10.97;;;;;;;;;;5115255;28;20209;-73
2022/08/17 01:59:13;;;;;;;14.07;10.53;;;;;;;;;;5115249;28;20253;-73
2022/08/17 02:01:41;;;;;;;12.10;10.50;;;;;;;;;;5110901;28;20620;-73
2022/08/17 02:04:08;;;;;;;12.40;11.10;;;;;;;;;;5094524;28;20230;-73
2022/08/17 02:06:37;;;;;;;12.90;11.10;;;;;;;;;;5094615;28;20253;-73
2022/08/17 02:09:04;;;;;;;14.20;11.30;;;;;;;;;;5094134;28;20238;-73
2022/08/17 02:11:33;;;;;;;13.20;11.13;;;;;;;;;;5094620;28;20198;-73
2022/08/17 02:14:00;;;;;;;15.47;11.80;;;;;;;;;;5094640;28;20202;-73
2022/08/17 02:16:28;;;;;;;14.60;11.13;;;;;;;;;;5094335;28;20289;-73
2022/08/17 02:18:55;;;;;;;13.03;11.37;;;;;;;;;;5094562;28;20203;-73
2022/08/17 02:21:23;;;;;;;15.80;11.63;;;;;;;;;;5094024;28;20237;-73
2022/08/17 02:23:50;;;;;;;14.80;11.20;;;;;;;;;;5093845;28;20290;-73
2022/08/17 02:26:17;;;;;;;13.40;11.90;;;;;;;;;;5094269;28;20226;-73
2022/08/17 02:28:45;;;;;;;15.10;12.13;;;;;;;;;;5094173;28;20234;-73
2022/08/17 02:31:12;;;;;;;13.70;12.00;;;;;;;;;;5094021;28;20289;-73
2022/08/17 02:33:42;;;;;;;13.50;12.10;;;;;;;;;;5094303;28;20202;-73
2022/08/17 02:36:09;;;;;;;14.37;11.27;;;;;;;;;;5093952;28;20647;-73
2022/08/17 02:38:36;;;;;;;14.20;11.93;;;;;;;;;;5093840;28;20252;-73
2022/08/17 02:41:03;;;;;;;14.77;12.30;;;;;;;;;;5094099;28;20234;-73
2022/08/17 02:43:31;;;;;;;13.23;11.83;;;;;;;;;;5094161;28;20198;-73
2022/08/17 02:45:58;;;;;;;14.93;11.97;;;;;;;;;;5096487;28;20328;-73
2022/08/17 02:48:25;;;;;;;12.87;11.57;;;;;;;;;;5114310;28;20240;-74
2022/08/17 02:50:54;;;;;;;15.30;12.53;;;;;;;;;;5113928;28;20229;-74
2022/08/17 02:53:21;;;;;;;16.37;12.17;;;;;;;;;;5113823;28;20233;-73
2022/08/17 02:55:48;;;;;;;12.57;11.27;;;;;;;;;;5113342;28;20316;-73
2022/08/17 02:58:17;;;;;;;14.70;11.30;;;;;;;;;;5114039;28;20253;-73
2022/08/17 03:00:47;;;;;;;13.87;11.80;;;;;;;;;;5114071;28;20202;-73
2022/08/17 03:03:17;;;;;;;15.97;11.53;;;;;;;;;;5113779;28;20281;-73
2022/08/17 03:05:46;;;;;;;14.93;12.00;;;;;;;;;;5113426;28;20264;-73
2022/08/17 03:08:15;;;;;;;13.83;11.30;;;;;;;;;;5114105;28;20205;-73
2022/08/17 03:10:43;;;;;;;13.83;11.97;;;;;;;;;;5113922;28;20235;-73
2022/08/17 03:13:11;;;;;;;13.30;11.90;;;;;;;;;;5114156;28;20288;-73
2022/08/17 03:15:39;;;;;;;14.50;13.00;;;;;;;;;;5113882;28;20194;-74
2022/08/17 03:18:07;;;;;;;16.10;13.30;;;;;;;;;;5113420;28;20687;-73
2022/08/17 03:20:35;;;;;;;14.40;12.97;;;;;;;;;;5113099;28;20630;-73
2022/08/17 03:23:02;;;;;;;18.03;13.57;;;;;;;;;;5113604;28;20202;-73
2022/08/17 03:25:32;;;;;;;16.07;13.23;;;;;;;;;;5113537;28;20662;-73
2022/08/17 03:28:00;;;;;;;15.70;12.90;;;;;;;;;;5113669;28;20229;-73
2022/08/17 03:30:27;;;;;;;16.27;12.93;;;;;;;;;;5113417;28;20233;-73
2022/08/17 03:32:59;;;;;;;14.93;13.33;;;;;;;;;;5113418;28;20248;-73
2022/08/17 03:35:28;;;;;;;16.47;12.97;;;;;;;;;;5112977;28;20196;-73
2022/08/17 03:37:56;;;;;;;17.03;14.30;;;;;;;;;;5113383;28;20717;-73
2022/08/17 03:40:23;;;;;;;18.27;14.00;;;;;;;;;;5113674;28;20246;-72
2022/08/17 03:42:53;;;;;;;15.83;13.77;;;;;;;;;;5113436;28;20205;-73
2022/08/17 03:56:41;;;;;;;18.03;14.27;;;;;;;;;;5113162;28;20221;-73
2022/08/17 03:56:42;;;;;;;17.10;13.73;;;;;;;;;;5092947;28;20661;-73
2022/08/17 03:59:11;;;;;;;17.33;13.30;;;;;;;;;;5092721;28;20249;-73
2022/08/17 04:01:38;;;;;;;17.00;13.50;;;;;;;;;;5092612;28;20225;-73
2022/08/17 04:04:05;;;;;;;16.07;12.97;;;;;;;;;;5092779;28;20289;-73
2022/08/17 04:06:33;;;;;;;16.70;13.33;;;;;;;;;;5092871;28;20257;-73
2022/08/17 04:09:00;;;;;;;15.87;13.03;;;;;;;;;;5096855;28;20232;-73
2022/08/17 04:11:27;;;;;;;15.00;13.03;;;;;;;;;;5097084;28;20290;-73
2022/08/17 04:13:55;;;;;;;18.40;13.30;;;;;;;;;;5096552;28;20241;-73
2022/08/17 04:16:24;;;;;;;14.13;12.73;;;;;;;;;;5096699;28;20592;-73
2022/08/17 04:18:51;;;;;;;14.57;12.30;;;;;;;;;;5096284;28;20202;-73
2022/08/17 04:21:19;;;;;;;14.63;12.90;;;;;;;;;;5095457;28;20202;-73
2022/08/17 04:23:46;;;;;;;16.77;13.37;;;;;;;;;;5096447;28;20285;-73
2022/08/17 04:26:14;;;;;;;14.17;12.70;;;;;;;;;;5096527;28;20309;-74
2022/08/17 04:28:41;;;;;;;14.57;12.20;;;;;;;;;;5096547;28;20285;-73
2022/08/17 04:31:09;;;;;;;13.87;12.33;;;;;;;;;;5096355;28;20297;-74
2022/08/17 04:33:38;;;;;;;14.47;12.50;;;;;;;;;;5096133;28;20286;-73
2022/08/17 04:36:07;;;;;;;14.27;12.67;;;;;;;;;;5096508;28;20218;-73
2022/08/17 04:38:36;;;;;;;16.17;12.07;;;;;;;;;;5096399;28;20252;-73
2022/08/17 04:43:53;;;;;;;18.13;12.80;;;;;;;;;;5096283;28;20197;-73
2022/08/17 04:46:21;;;;;;;15.43;12.53;;;;;;;;;;5095878;28;20233;-73
2022/08/17 04:48:51;;;;;;;14.77;12.37;;;;;;;;;;5096103;28;20625;-73
2022/08/17 04:51:19;;;;;;;14.03;12.60;;;;;;;;;;5096488;28;20293;-73
2022/08/17 04:53:47;;;;;;;15.23;12.63;;;;;;;;;;5095939;28;20666;-73
2022/08/17 04:56:15;;;;;;;16.87;13.03;;;;;;;;;;5096150;28;20626;-73
2022/08/17 04:58:42;;;;;;;16.40;13.50;;;;;;;;;;5095754;28;20257;-73
2022/08/17 05:01:10;;;;;;;15.30;12.97;;;;;;;;;;5096161;28;20299;-73
2022/08/17 05:03:37;;;;;;;17.27;12.13;;;;;;;;;;5095662;28;20689;-73
2022/08/17 05:06:06;;;;;;;15.20;13.23;;;;;;;;;;5095702;28;20268;-73
2022/08/17 05:08:33;;;;;;;14.70;12.40;;;;;;;;;;5095841;28;20206;-73
2022/08/17 05:11:00;;;;;;;14.93;12.83;;;;;;;;;;5095626;28;20642;-73
2022/08/17 05:13:29;;;;;;;15.93;13.90;;;;;;;;;;5095626;28;20648;-73
2022/08/17 05:15:56;;;;;;;17.23;13.67;;;;;;;;;;5095331;28;20194;-73
2022/08/17 05:18:24;;;;;;;15.10;13.57;;;;;;;;;;5094907;28;20234;-73
2022/08/17 05:20:52;;;;;;;15.30;13.73;;;;;;;;;;5095672;28;20232;-73
2022/08/17 05:23:21;;;;;;;15.43;12.93;;;;;;;;;;5095442;28;20230;-73
2022/08/17 05:25:50;;;;;;;13.60;12.20;;;;;;;;;;5095131;28;20261;-73
2022/08/17 05:28:17;;;;;;;16.87;12.33;;;;;;;;;;5095313;28;20198;-73
2022/08/17 05:30:45;;;;;;;15.10;12.67;;;;;;;;;;5094685;28;20230;-73
2022/08/17 05:33:13;;;;;;;13.60;12.20;;;;;;;;;;5095312;28;20237;-73
2022/08/17 05:35:42;;;;;;;14.43;12.13;;;;;;;;;;5095149;28;20248;-73
2022/08/17 05:38:09;;;;;;;15.87;12.27;;;;;;;;;;5094941;28;20289;-73
2022/08/17 05:40:38;;;;;;;13.17;10.90;;;;;;;;;;5095175;28;20237;-73
2022/08/17 05:43:07;;;;;;;14.00;11.13;;;;;;;;;;5094853;28;20257;-73
2022/08/17 05:45:36;;;;;;;12.53;11.27;;;;;;;;;;5094903;28;20309;-73
2022/08/17 05:48:03;;;;;;;13.27;10.80;;;;;;;;;;5094824;28;20666;-73
2022/08/17 05:50:34;;;;;;;11.40;10.07;;;;;;;;;;5094931;28;20717;-73
2022/08/17 05:53:06;;;;;;;12.60;10.63;;;;;;;;;;5095141;28;20237;-73
2022/08/17 05:55:38;;;;;;;11.97;10.70;;;;;;;;;;5094837;28;20268;-73
2022/08/17 05:58:10;;;;;;;12.33;10.97;;;;;;;;;;5094514;28;20287;-73
2022/08/17 06:00:40;;;;;;;13.03;10.47;;;;;;;;;;5094412;28;20249;-73
2022/08/17 06:03:19;;;;;;;11.67;10.47;;;;;;;;;;5094649;28;20281;-73
2022/08/17 06:05:51;;;;;;;12.77;10.37;;;;;;;;;;5094641;28;20214;-73
2022/08/17 06:08:24;;;;;;;12.23;10.50;;;;;;;;;;5095011;28;20232;-73
2022/08/17 06:10:57;;;;;;;15.17;10.70;;;;;;;;;;5094444;28;20241;-73
2022/08/17 06:13:30;;;;;;;11.67;10.50;;;;;;;;;;5094330;28;20633;-73
2022/08/17 06:16:02;;;;;;;11.70;10.50;;;;;;;;;;5094385;28;20201;-73
2022/08/17 06:18:34;;;;;;;12.13;10.97;;;;;;;;;;5094561;28;20285;-73
2022/08/17 06:21:03;;;;;;;12.33;10.53;;;;;;;;;;5094315;28;20241;-73
2022/08/17 06:23:33;;;;;;;11.37;10.20;;;;;;;;;;5094187;28;20202;-73
2022/08/17 06:26:03;;;;;;;15.63;11.07;;;;;;;;;;5093912;28;20686;-74
2022/08/17 06:28:37;;;;;;;12.57;10.87;;;;;;;;;;5094044;28;20194;-73
2022/08/17 06:31:09;;;;;;;11.77;10.60;;;;;;;;;;5093477;28;20236;-73
2022/08/17 06:33:38;;;;;;;13.77;11.50;;;;;;;;;;5094060;28;20725;-73
2022/08/17 06:36:11;;;;;;;13.73;11.40;;;;;;;;;;5094401;28;20220;-73
2022/08/17 06:38:44;;;;;;;12.67;11.17;;;;;;;;;;5093990;28;20237;-73
2022/08/17 06:41:16;;;;;;;13.80;11.53;;;;;;;;;;5093981;28;20238;-73
2022/08/17 06:43:51;;;;;;;11.93;10.73;;;;;;;;;;5093757;28;20205;-73
2022/08/17 06:46:21;;;;;;;15.03;10.87;;;;;;;;;;5099670;28;20651;-73
2022/08/17 06:48:52;;;;;;;12.83;10.87;;;;;;;;;;5114131;28;20716;-73
2022/08/17 06:51:27;;;;;;;11.97;10.77;;;;;;;;;;5113973;28;20679;-73
2022/08/17 06:53:59;;;;;;;11.80;10.60;;;;;;;;;;5114461;28;20225;-73
2022/08/17 06:56:33;;;;;;;11.80;10.33;;;;;;;;;;5113698;28;20595;-73
2022/08/17 06:59:02;;;;;;;13.77;11.17;;;;;;;;;;5113798;28;20271;-73
2022/08/17 07:01:31;;;;;;;13.77;11.00;;;;;;;;;;5114256;28;20194;-73
2022/08/17 07:04:02;;;;;;;14.53;10.50;;;;;;;;;;5114156;28;20284;-73
2022/08/17 07:06:33;;;;;;;11.83;10.43;;;;;;;;;;5113926;28;20742;-73
2022/08/17 07:09:02;;;;;;;12.17;10.53;;;;;;;;;;5114003;28;20285;-73
2022/08/17 07:11:32;;;;;;;12.32;9.93;;;;;;;;;;5113694;28;20201;-73
2022/08/17 07:14:06;;;;;;;11.48;10.05;;;;;;;;;;5113420;28;20233;-73
2022/08/17 07:16:39;;;;;;;12.55;9.95;;;;;;;;;;5112297;28;20723;-73
2022/08/17 07:19:08;;;;;;;13.20;9.07;;;;;;;;;;5113934;28;20197;-73
2022/08/17 07:21:39;;;;;;;11.45;8.82;;;;;;;;;;5113493;28;20233;-73
2022/08/17 07:24:18;;;;;;;11.75;8.77;;;;;;;;;;5113550;28;20205;-73
2022/08/17 07:26:48;;;;;;;10.02;8.73;;;;;;;;;;5113285;28;20568;-72
2022/08/17 07:29:18;;;;;;;10.40;9.25;;;;;;;;;;5113686;28;20282;-73
2022/08/17 07:31:45;;;;;;;10.32;8.95;;;;;;;;;;5113544;28;20198;-73
2022/08/17 07:34:13;;;;;;;12.07;9.23;;;;;;;;;;5113399;28;20223;-73
2022/08/17 07:36:41;;;;;;;10.40;9.30;;;;;;;;;;5113062;28;20235;-73
2022/08/17 07:39:08;;;;;;;10.20;9.15;;;;;;;;;;5113527;28;20225;-73
2022/08/17 07:41:39;;;;;;;11.30;10.02;;;;;;;;;;5112828;28;20237;-73
2022/08/17 07:44:11;;;;;;;10.88;9.85;;;;;;;;;;5113334;28;20673;-73
2022/08/17 07:49:35;;;;;;;12.15;10.95;;;;;;;;;;5113218;28;20192;-73
2022/08/17 07:52:05;;;;;;;11.13;10.02;;;;;;;;;;5113072;28;20232;-73
2022/08/17 07:54:34;;;;;;;11.75;9.57;;;;;;;;;;5113025;28;20615;-73
2022/08/17 07:57:03;;;;;;;11.00;9.90;;;;;;;;;;5112475;28;20198;-73
2022/08/17 07:59:31;;;;;;;11.13;10.00;;;;;;;;;;5113405;28;20194;-72
2022/08/17 08:02:14;;;;;;;10.45;9.40;;;;;;;;;;5113002;28;20229;-73
2022/08/17 08:04:42;;;;;;;11.50;10.32;;;;;;;;;;5113148;28;20205;-73
2022/08/17 08:07:12;;;;;;;11.98;10.40;;;;;;;;;;5113031;28;20261;-73
2022/08/17 08:09:42;;;;;;;11.93;10.27;;;;;;;;;;5112721;28;20767;-73
2022/08/17 08:12:24;;;;;;;13.48;10.50;;;;;;;;;;5113064;28;20229;-75
2022/08/17 08:14:56;;;;;;;12.02;10.63;;;;;;;;;;5112816;28;20202;-73
2022/08/17 08:17:26;;;;;;;12.68;10.88;;;;;;;;;;5112810;28;20276;-73
2022/08/17 08:19:53;;;;;;;12.50;10.57;;;;;;;;;;5112872;28;20229;-73
2022/08/17 08:22:28;;;;;;;32.83;12.48;;;;;;;;;;5113049;28;20229;-74
2022/08/17 08:25:02;;;;;;;20.45;11.60;;;;;;;;;;5112694;28;20280;-74
2022/08/17 08:27:35;;;;;;;14.57;11.48;;;;;;;;;;5112802;28;20302;-73
2022/08/17 08:30:07;;;;;;;12.68;11.43;;;;;;;;;;5112679;28;20233;-73
2022/08/17 08:32:46;;;;;;;13.88;11.52;;;;;;;;;;5112794;28;20240;-73
2022/08/17 08:35:18;;;;;;;16.90;12.07;;;;;;;;;;5112675;28;20201;-73
2022/08/17 08:37:48;;;;;;;19.67;12.98;;;;;;;;;;5112699;28;20225;-73
2022/08/17 08:40:25;;;;;;;15.15;11.75;;;;;;;;;;5112261;28;20200;-73
2022/08/17 08:42:56;;;;;;;15.90;12.20;;;;;;;;;;5112796;28;20289;-73
2022/08/17 08:45:29;;;;;;;14.25;12.13;;;;;;;;;;5111555;28;20197;-73
2022/08/17 08:48:04;;;;;;;13.55;11.98;;;;;;;;;;5092939;28;20298;-73
2022/08/17 08:50:39;;;;;;;12.60;11.25;;;;;;;;;;5092487;28;20285;-73
2022/08/17 08:53:27;;;;;;;8.35;6.53;;;;;;;;;;5092659;28;20194;-73
2022/08/17 08:55:56;;;;;;;7.93;6.93;;;;;;;;;;5096045;28;20261;-73
2022/08/17 08:58:31;;;;;;;6.68;6.07;;;;;;;;;;5096083;28;20220;-73
2022/08/17 09:00:59;;;;;;;6.68;6.07;;;;;;;;;;5096040;28;20208;-73
2022/08/17 09:03:41;;;;;;;6.63;6.00;;;;;;;;;;5096159;28;20230;-73
2022/08/17 09:06:26;;;;;;;6.20;5.57;;;;;;;;;;5095768;28;20209;-74
2022/08/17 09:08:59;;;;;;;6.38;5.78;;;;;;;;;;5095598;28;20327;-73
2022/08/17 09:11:39;;;;;;;6.53;5.93;;;;;;;;;;5095928;28;20289;-73
2022/08/17 09:14:12;;;;;;;5.20;4.70;;;;;;;;;;5095616;28;20198;-74
2022/08/17 09:16:43;;;;;;;6.20;5.65;;;;;;;;;;5095841;28;20226;-73
2022/08/17 09:19:15;;;;;;;6.25;5.25;;;;;;;;;;5095705;28;20263;-74
2022/08/17 09:21:45;;;;;;;4.55;4.10;;;;;;;;;;5095536;28;20281;-74
2022/08/17 09:24:16;;;;;;;3.33;3.03;;;;;;;;;;5095206;28;20237;-74
2022/08/17 09:26:47;;;;;;;3.90;3.60;;;;;;;;;;5095393;28;20230;-74
2022/08/17 09:29:15;;;;;;;6.10;4.32;;;;;;;;;;5095637;28;20217;-74
2022/08/17 09:31:47;;;;;;;5.50;4.10;;;;;;;;;;5095354;28;20601;-74
2022/08/17 09:34:17;;;;;;;4.10;3.70;;;;;;;;;;5095538;28;20237;-74
2022/08/17 09:36:48;;;;;;;4.97;3.97;;;;;;;;;;5094835;28;20277;-74
2022/08/17 09:39:17;;;;;;;5.10;4.35;;;;;;;;;;5095467;28;20226;-74
2022/08/17 09:41:47;;;;;;;4.45;4.05;;;;;;;;;;5095304;28;20230;-74
2022/08/17 09:44:18;;;;;;;4.10;3.70;;;;;;;;;;5095165;28;20621;-74
2022/08/17 09:46:48;;;;;;;4.28;3.70;;;;;;;;;;5104266;28;20257;-74
2022/08/17 09:49:21;;;;;;;5.22;3.83;;;;;;;;;;5114920;27;20229;-74
2022/08/17 09:51:50;;;;;;;4.85;4.28;;;;;;;;;;5114631;28;20240;-74
2022/08/17 09:54:20;;;;;;;5.95;5.35;;;;;;;;;;5114785;28;20203;-74
2022/08/17 09:56:53;;;;;;;5.55;5.10;;;;;;;;;;5114960;28;20194;-74
2022/08/17 09:59:27;;;;;;;6.97;5.80;;;;;;;;;;5115064;28;20640;-74
2022/08/17 10:01:59;;;;;;;6.10;5.45;;;;;;;;;;5115009;28;20209;-74
2022/08/17 10:04:32;;;;;;;5.38;4.88;;;;;;;;;;5114899;28;20294;-73
2022/08/17 10:07:05;;;;;;;6.00;5.10;;;;;;;;;;5114614;28;20257;-73
2022/08/17 10:09:40;;;;;;;4.70;4.30;;;;;;;;;;5115148;28;20197;-73
2022/08/17 10:12:16;;;;;;;4.68;4.28;;;;;;;;;;5114928;28;20246;-73
2022/08/17 10:14:49;;;;;;;5.10;4.70;;;;;;;;;;5114871;28;20755;-74
2022/08/17 10:17:21;;;;;;;5.90;5.40;;;;;;;;;;5114842;28;20234;-73
2022/08/17 10:19:53;;;;;;;6.25;5.60;;;;;;;;;;5114926;28;20198;-74
2022/08/17 10:27:57;;;;;;;4.60;4.20;;;;;;;;;;5114413;28;20260;-73
2022/08/17 10:30:26;;;;;;;4.70;4.30;;;;;;;;;;5115134;28;20251;-73
2022/08/17 10:32:54;;;;;;;6.28;4.28;;;;;;;;;;5114657;28;20209;-74
2022/08/17 10:35:38;;;;;;;4.65;4.25;;;;;;;;;;5114320;28;20202;-74
2022/08/17 10:38:20;;;;;;;4.00;3.70;;;;;;;;;;5114366;28;20240;-73
2022/08/17 10:40:51;;;;;;;2.88;2.50;;;;;;;;;;5114271;28;20233;-73
2022/08/17 10:43:28;;;;;;;3.70;2.30;;;;;;;;;;5114465;28;20202;-74
2022/08/17 10:46:01;;;;;;;2.63;2.05;;;;;;;;;;5114263;28;20204;-74
2022/08/17 10:48:30;;;;;;;3.42;2.40;;;;;;;;;;5114090;28;20244;-74
2022/08/17 10:51:01;;;;;;;3.10;2.20;;;;;;;;;;5113859;28;20646;-73
2022/08/17 10:53:47;;;;;;;2.40;2.20;;;;;;;;;;5114135;28;20229;-72
2022/08/17 10:56:22;;;;;;;3.95;2.10;;;;;;;;;;5113897;28;20637;-72
2022/08/17 10:58:52;;;;;;;2.65;2.33;;;;;;;;;;5114077;28;20217;-72
2022/08/17 11:01:20;;;;;;;2.60;2.40;;;;;;;;;;5113852;28;20217;-73
2022/08/17 11:03:53;;;;;;;2.88;2.40;;;;;;;;;;5113830;28;20197;-72
2022/08/17 11:06:25;;;;;;;2.55;2.15;;;;;;;;;;5113996;28;20204;-72
2022/08/17 11:09:09;;;;;;;3.03;1.90;;;;;;;;;;5114147;28;20264;-75
2022/08/17 11:11:46;;;;;;;2.13;1.92;;;;;;;;;;5113912;28;20250;-74
2022/08/17 11:14:22;;;;;;;2.15;1.95;;;;;;;;;;5113846;28;20292;-74
2022/08/17 11:16:53;;;;;;;4.25;2.08;;;;;;;;;;5113158;28;20727;-74
2022/08/17 11:19:42;;;;;;;2.20;2.00;;;;;;;;;;5113493;28;20296;-74
2022/08/17 11:22:25;;;;;;;1.83;1.70;;;;;;;;;;5113791;28;20202;-74
2022/08/17 11:24:54;;;;;;;2.13;1.83;;;;;;;;;;5113499;28;20337;-74
2022/08/17 11:27:25;;;;;;;2.13;1.73;;;;;;;;;;5113507;28;20229;-74
2022/08/17 11:29:54;;;;;;;1.60;0.90;;;;;;;;;;5113662;28;20252;-74
2022/08/17 11:32:37;;;;;;;1.25;0.90;;;;;;;;;;5113606;28;20291;-73
2022/08/17 11:35:15;;;;;;;0.85;0.80;;;;;;;;;;5112975;27;20224;-74
2022/08/17 11:37:50;;;;;;;1.10;0.98;;;;;;;;;;5113034;28;20281;-74
2022/08/17 11:40:35;;;;;;;1.10;0.93;;;;;;;;;;5113482;28;20228;-74
2022/08/17 11:43:16;;;;;;;1.77;0.98;;;;;;;;;;5113208;28;20628;-73
2022/08/17 11:45:53;;;;;;;1.40;1.10;;;;;;;;;;5113051;28;20697;-73
2022/08/17 11:54:13;;;;;;;1.70;1.48;;;;;;;;;;5070218;28;20626;-73
2022/08/17 11:56:42;;;;;;;1.92;1.40;;;;;;;;;;5070199;28;20206;-74
2022/08/17 11:59:28;;;;;;;1.38;1.25;;;;;;;;;;5070085;28;20876;-73
2022/08/17 12:01:56;;;;;;;1.88;1.38;;;;;;;;;;5069876;28;20203;-74
2022/08/17 12:04:28;;;;;;;1.60;1.40;;;;;;;;;;5070191;28;20253;-73
2022/08/17 12:06:58;;;;;;;1.40;1.30;;;;;;;;;;5070191;28;20230;-73
2022/08/17 12:09:30;;;;;;;1.85;1.65;;;;;;;;;;5070199;28;20258;-73
2022/08/17 12:11:58;;;;;;;2.65;1.60;;;;;;;;;;5070021;28;20202;-74
2022/08/17 12:14:27;;;;;;;2.95;1.70;;;;;;;;;;5070065;28;20238;-74
2022/08/17 12:17:05;;;;;;;3.17;1.60;;;;;;;;;;5070156;28;20645;-74
2022/08/17 12:19:33;;;;;;;2.00;1.85;;;;;;;;;;5069987;28;20716;-74
2022/08/17 12:22:03;;;;;;;2.72;2.10;;;;;;;;;;5070123;28;20301;-74
2022/08/17 12:24:37;;;;;;;1.85;1.70;;;;;;;;;;5070137;28;20579;-73
2022/08/17 12:27:06;;;;;;;2.88;2.00;;;;;;;;;;5070016;28;20199;-74
2022/08/17 12:29:35;;;;;;;3.97;1.92;;;;;;;;;;5115540;28;20284;-74
2022/08/17 12:32:03;;;;;;;2.53;1.83;;;;;;;;;;5116615;28;20289;-74
2022/08/17 12:34:34;;;;;;;1.75;1.65;;;;;;;;;;5116624;28;20204;-73
2022/08/17 12:37:03;;;;;;;1.70;1.60;;;;;;;;;;5117140;28;20197;-74
2022/08/17 12:39:31;;;;;;;2.88;2.03;;;;;;;;;;5116842;28;20297;-73
2022/08/17 12:42:00;;;;;;;2.25;2.05;;;;;;;;;;5116909;28;20280;-74
2022/08/17 12:44:29;;;;;;;2.55;1.85;;;;;;;;;;5116989;28;20290;-73
2022/08/17 12:46:59;;;;;;;2.60;1.88;;;;;;;;;;5116120;28;20241;-73
2022/08/17 12:49:29;;;;;;;1.75;1.63;;;;;;;;;;5116473;28;20217;-73
2022/08/17 12:52:17;;;;;;;2.55;2.10;;;;;;;;;;5116405;28;20288;-74
2022/08/17 12:54:50;;;;;;;3.00;2.10;;;;;;;;;;5111446;28;20268;-73
2022/08/17 12:57:21;;;;;;;2.47;2.00;;;;;;;;;;5116205;28;20233;-74
2022/08/17 12:59:50;;;;;;;2.20;2.00;;;;;;;;;;5116286;28;20220;-73
2022/08/17 13:02:21;;;;;;;2.95;1.90;;;;;;;;;;5116533;28;20232;-74
2022/08/17 13:04:49;;;;;;;2.88;2.00;;;;;;;;;;5116539;28;20229;-74
2022/08/17 13:07:26;;;;;;;2.58;2.10;;;;;;;;;;5116175;28;20202;-74
2022/08/17 13:09:54;;;;;;;3.05;1.90;;;;;;;;;;5116106;28;20201;-74
2022/08/17 13:12:28;;;;;;;3.97;2.17;;;;;;;;;;5116077;28;20237;-74
2022/08/17 13:14:56;;;;;;;3.60;2.03;;;;;;;;;;5115763;28;20742;-74
2022/08/17 13:17:27;;;;;;;2.10;1.90;;;;;;;;;;5115739;27;20193;-74
2022/08/17 13:19:55;;;;;;;2.40;2.15;;;;;;;;;;5116049;28;20293;-74
2022/08/17 13:22:23;;;;;;;2.50;2.28;;;;;;;;;;5115986;28;20240;-74
2022/08/17 13:24:53;;;;;;;2.90;2.25;;;;;;;;;;5116136;28;20233;-74
2022/08/17 13:27:21;;;;;;;2.70;2.30;;;;;;;;;;5115707;28;20644;-74
2022/08/17 13:29:52;;;;;;;2.63;2.30;;;;;;;;;;5115483;28;20736;-74
2022/08/17 13:32:21;;;;;;;2.47;2.28;;;;;;;;;;5115961;27;20201;-74
2022/08/17 13:34:50;;;;;;;2.28;2.08;;;;;;;;;;5115737;28;20578;-74
2022/08/17 13:37:18;;;;;;;2.50;2.30;;;;;;;;;;5115922;28;20225;-73
2022/08/17 13:39:45;;;;;;;3.35;2.40;;;;;;;;;;5115328;28;20201;-74
2022/08/17 13:42:27;;;;;;;2.53;2.33;;;;;;;;;;5115795;28;20256;-73
2022/08/17 13:44:56;;;;;;;2.50;2.30;;;;;;;;;;5115209;28;20233;-73
2022/08/17 13:47:24;;;;;;;2.75;2.33;;;;;;;;;;5115072;28;20288;-74
2022/08/17 13:49:51;;;;;;;2.70;2.20;;;;;;;;;;5115391;28;20221;-73
2022/08/17 13:52:33;;;;;;;2.60;2.40;;;;;;;;;;5115451;28;20278;-73
2022/08/17 13:55:01;;;;;;;2.78;2.58;;;;;;;;;;5115330;28;20265;-74
2022/08/17 13:57:29;;;;;;;2.90;2.53;;;;;;;;;;5115008;28;20275;-74
2022/08/17 14:00:09;;;;;;;3.17;2.50;;;;;;;;;;5114943;28;20277;-73
2022/08/17 14:02:36;;;;;;;2.40;2.20;;;;;;;;;;5114783;28;20197;-73
2022/08/17 14:05:03;;;;;;;3.33;3.03;;;;;;;;;;5114903;28;20288;-74
2022/08/17 14:07:32;;;;;;;3.25;2.95;;;;;;;;;;5114925;28;20282;-74
2022/08/17 14:10:01;;;;;;;3.17;2.88;;;;;;;;;;5114622;28;20229;-74
2022/08/17 14:12:30;;;;;;;2.83;2.63;;;;;;;;;;5114695;28;20313;-74
2022/08/17 14:14:59;;;;;;;3.03;2.40;;;;;;;;;;5115220;28;20229;-74
2022/08/17 14:17:27;;;;;;;9.45;2.85;;;;;;;;;;5115060;28;20236;-73
2022/08/17 14:19:54;;;;;;;5.93;2.50;;;;;;;;;;5114618;28;20194;-74
2022/08/17 14:22:24;;;;;;;3.63;2.20;;;;;;;;;;5114782;28;20300;-74
2022/08/17 14:24:52;;;;;;;3.13;2.05;;;;;;;;;;5114909;28;20193;-74
2022/08/17 14:27:19;;;;;;;3.20;2.78;;;;;;;;;;5114419;28;20194;-73
2022/08/17 14:29:47;;;;;;;3.00;2.60;;;;;;;;;;5114713;28;20287;-74
2022/08/17 14:32:18;;;;;;;2.83;2.47;;;;;;;;;;5114523;28;20241;-74
2022/08/17 14:34:46;;;;;;;5.45;2.25;;;;;;;;;;5114541;28;20198;-74
2022/08/17 14:37:13;;;;;;;2.70;2.40;;;;;;;;;;5114755;28;20267;-73
2022/08/17 14:39:40;;;;;;;2.00;1.80;;;;;;;;;;5114504;28;20288;-74
2022/08/17 14:42:10;;;;;;;3.05;2.00;;;;;;;;;;5114053;28;20202;-74
2022/08/17 14:44:37;;;;;;;2.67;2.40;;;;;;;;;;5114201;28;20679;-74
2022/08/17 14:47:05;;;;;;;2.95;2.55;;;;;;;;;;5114188;28;20229;-74
2022/08/17 14:49:33;;;;;;;3.00;2.72;;;;;;;;;;5114451;28;20257;-74
2022/08/17 14:52:01;;;;;;;2.97;2.67;;;;;;;;;;5113358;28;20685;-74
2022/08/17 14:54:28;;;;;;;3.50;3.10;;;;;;;;;;5113889;28;20236;-74
2022/08/17 14:56:55;;;;;;;3.00;2.70;;;;;;;;;;5112504;28;20209;-74
2022/08/17 14:59:23;;;;;;;2.97;2.67;;;;;;;;;;5114153;28;20308;-73
2022/08/17 15:01:51;;;;;;;2.70;2.15;;;;;;;;;;5114126;28;20229;-74
2022/08/17 15:04:18;;;;;;;3.05;2.38;;;;;;;;;;5114023;28;20209;-74
2022/08/17 15:06:47;;;;;;;2.50;2.17;;;;;;;;;;5114130;28;20197;-74
2022/08/17 15:09:14;;;;;;;2.45;2.25;;;;;;;;;;5113433;28;20312;-74
2022/08/17 15:11:41;;;;;;;3.35;2.13;;;;;;;;;;5113626;28;20228;-73